sensor_id;sensor_type;location;lat;lon;timestamp;pressure;altitude;pressure_sealevel;temperature;humidity
31483;BME280;18103;52.246;8.052;2023-08-06T00:01:33;99457.88;;;15.57;89.73
31483;BME280;18103;52.246;8.052;2023-08-06T00:03:58;99471.97;;;15.58;89.59
31483;BME280;18103;52.246;8.052;2023-08-06T00:06:25;99463.09;;;15.43;90.08
31483;BME280;18103;52.246;8.052;2023-08-06T00:08:50;99466.84;;;15.56;89.42
31483;BME280;18103;52.246;8.052;2023-08-06T00:11:20;99459.25;;;15.45;90.28
31483;BME280;18103;52.246;8.052;2023-08-06T00:13:45;99450.28;;;15.46;89.88
31483;BME280;18103;52.246;8.052;2023-08-06T00:16:13;99452.09;;;15.46;91.26
31483;BME280;18103;52.246;8.052;2023-08-06T00:18:41;99448.97;;;15.42;90.48
31483;BME280;18103;52.246;8.052;2023-08-06T00:21:07;99450.75;;;15.50;90.37
31483;BME280;18103;52.246;8.052;2023-08-06T00:23:32;99449.00;;;15.34;91.25
31483;BME280;18103;52.246;8.052;2023-08-06T00:26:00;99444.97;;;15.46;90.64
31483;BME280;18103;52.246;8.052;2023-08-06T00:28:30;99445.78;;;15.47;90.50
31483;BME280;18103;52.246;8.052;2023-08-06T00:30:57;99451.66;;;15.65;89.29
31483;BME280;18103;52.246;8.052;2023-08-06T00:33:25;99439.06;;;15.59;89.38
31483;BME280;18103;52.246;8.052;2023-08-06T00:35:53;99444.25;;;15.52;89.49
31483;BME280;18103;52.246;8.052;2023-08-06T00:38:20;99443.25;;;15.53;89.92
31483;BME280;18103;52.246;8.052;2023-08-06T00:40:46;99435.91;;;15.55;89.69
31483;BME280;18103;52.246;8.052;2023-08-06T00:43:13;99443.72;;;15.57;89.60
31483;BME280;18103;52.246;8.052;2023-08-06T00:45:39;99435.06;;;15.63;89.13
31483;BME280;18103;52.246;8.052;2023-08-06T00:48:07;99435.06;;;15.63;89.05
31483;BME280;18103;52.246;8.052;2023-08-06T00:50:32;99437.03;;;15.61;89.51
31483;BME280;18103;52.246;8.052;2023-08-06T00:52:59;99435.09;;;15.55;89.54
31483;BME280;18103;52.246;8.052;2023-08-06T00:55:27;99429.44;;;15.58;89.70
31483;BME280;18103;52.246;8.052;2023-08-06T00:57:55;99431.94;;;15.51;89.57
31483;BME280;18103;52.246;8.052;2023-08-06T01:00:25;99421.44;;;15.58;89.60
31483;BME280;18103;52.246;8.052;2023-08-06T01:02:51;99427.34;;;15.45;90.22
31483;BME280;18103;52.246;8.052;2023-08-06T01:05:17;99415.56;;;15.39;90.75
31483;BME280;18103;52.246;8.052;2023-08-06T01:08:06;99416.16;;;15.50;90.13
31483;BME280;18103;52.246;8.052;2023-08-06T01:16:03;99414.34;;;15.50;90.04
31483;BME280;18103;52.246;8.052;2023-08-06T01:18:31;99410.84;;;15.50;90.05
31483;BME280;18103;52.246;8.052;2023-08-06T01:20:56;99415.75;;;15.38;90.71
31483;BME280;18103;52.246;8.052;2023-08-06T01:23:22;99406.44;;;15.42;90.42
31483;BME280;18103;52.246;8.052;2023-08-06T01:31:02;99397.78;;;15.40;90.28
31483;BME280;18103;52.246;8.052;2023-08-06T01:33:30;99401.25;;;15.49;90.19
31483;BME280;18103;52.246;8.052;2023-08-06T01:36:00;99398.63;;;15.40;90.28
31483;BME280;18103;52.246;8.052;2023-08-06T01:38:26;99395.59;;;15.44;90.76
31483;BME280;18103;52.246;8.052;2023-08-06T01:40:53;99402.09;;;15.41;90.79
31483;BME280;18103;52.246;8.052;2023-08-06T01:43:18;99390.97;;;15.37;90.99
31483;BME280;18103;52.246;8.052;2023-08-06T01:45:44;99396.91;;;15.48;91.25
31483;BME280;18103;52.246;8.052;2023-08-06T01:48:11;99389.69;;;15.33;91.04
31483;BME280;18103;52.246;8.052;2023-08-06T01:50:37;99388.00;;;15.40;90.72
31483;BME280;18103;52.246;8.052;2023-08-06T01:53:04;99390.81;;;15.39;91.10
31483;BME280;18103;52.246;8.052;2023-08-06T01:55:32;99386.31;;;15.39;91.05
31483;BME280;18103;52.246;8.052;2023-08-06T01:58:02;99383.66;;;15.39;91.07
31483;BME280;18103;52.246;8.052;2023-08-06T02:00:27;99373.84;;;15.40;90.77
31483;BME280;18103;52.246;8.052;2023-08-06T02:02:55;99381.31;;;15.45;91.02
31483;BME280;18103;52.246;8.052;2023-08-06T02:05:20;99373.22;;;15.38;90.68
31483;BME280;18103;52.246;8.052;2023-08-06T02:07:49;99367.34;;;15.43;90.77
31483;BME280;18103;52.246;8.052;2023-08-06T02:10:14;99364.16;;;15.47;90.55
31483;BME280;18103;52.246;8.052;2023-08-06T02:12:39;99368.34;;;15.42;90.46
31483;BME280;18103;52.246;8.052;2023-08-06T02:15:05;99358.69;;;15.49;91.02
31483;BME280;18103;52.246;8.052;2023-08-06T02:17:31;99362.97;;;15.50;91.19
31483;BME280;18103;52.246;8.052;2023-08-06T02:19:59;99360.69;;;15.47;90.85
31483;BME280;18103;52.246;8.052;2023-08-06T02:22:25;99362.97;;;15.50;90.89
31483;BME280;18103;52.246;8.052;2023-08-06T02:24:51;99350.72;;;15.49;90.62
31483;BME280;18103;52.246;8.052;2023-08-06T02:27:18;99346.03;;;15.51;91.33
31483;BME280;18103;52.246;8.052;2023-08-06T02:29:43;99342.53;;;15.50;91.58
31483;BME280;18103;52.246;8.052;2023-08-06T02:32:12;99340.75;;;15.43;92.24
31483;BME280;18103;52.246;8.052;2023-08-06T02:34:39;99347.19;;;15.48;91.69
31483;BME280;18103;52.246;8.052;2023-08-06T02:37:07;99343.53;;;15.49;91.97
31483;BME280;18103;52.246;8.052;2023-08-06T02:39:32;99339.28;;;15.40;92.74
31483;BME280;18103;52.246;8.052;2023-08-06T02:42:05;99340.44;;;15.37;93.16
31483;BME280;18103;52.246;8.052;2023-08-06T02:44:30;99329.66;;;15.39;92.90
31483;BME280;18103;52.246;8.052;2023-08-06T02:47:01;99327.94;;;15.46;92.02
31483;BME280;18103;52.246;8.052;2023-08-06T02:49:27;99324.25;;;15.47;91.46
31483;BME280;18103;52.246;8.052;2023-08-06T02:51:52;99331.13;;;15.42;91.97
31483;BME280;18103;52.246;8.052;2023-08-06T02:54:18;99327.75;;;15.48;91.52
31483;BME280;18103;52.246;8.052;2023-08-06T02:56:46;99324.81;;;15.43;91.58
31483;BME280;18103;52.246;8.052;2023-08-06T02:59:12;99320.22;;;15.36;91.31
31483;BME280;18103;52.246;8.052;2023-08-06T03:01:38;99313.03;;;15.37;90.56
31483;BME280;18103;52.246;8.052;2023-08-06T03:04:03;99311.56;;;15.34;91.69
31483;BME280;18103;52.246;8.052;2023-08-06T03:06:29;99305.88;;;15.37;91.55
31483;BME280;18103;52.246;8.052;2023-08-06T03:08:54;99303.59;;;15.34;91.10
31483;BME280;18103;52.246;8.052;2023-08-06T03:11:22;99303.41;;;15.36;90.82
31483;BME280;18103;52.246;8.052;2023-08-06T03:13:50;99307.28;;;15.33;90.98
31483;BME280;18103;52.246;8.052;2023-08-06T03:16:15;99302.78;;;15.34;91.80
31483;BME280;18103;52.246;8.052;2023-08-06T03:18:41;99295.84;;;15.25;91.83
31483;BME280;18103;52.246;8.052;2023-08-06T03:21:09;99292.66;;;15.29;91.79
31483;BME280;18103;52.246;8.052;2023-08-06T03:23:36;99294.66;;;15.27;91.02
31483;BME280;18103;52.246;8.052;2023-08-06T03:26:02;99294.53;;;15.20;92.73
31483;BME280;18103;52.246;8.052;2023-08-06T03:28:30;99294.59;;;15.12;93.17
31483;BME280;18103;52.246;8.052;2023-08-06T03:31:02;99296.78;;;15.09;93.42
31483;BME280;18103;52.246;8.052;2023-08-06T03:33:30;99290.41;;;15.18;92.16
31483;BME280;18103;52.246;8.052;2023-08-06T03:35:57;99291.69;;;15.22;92.93
31483;BME280;18103;52.246;8.052;2023-08-06T03:38:25;99291.47;;;15.09;93.74
31483;BME280;18103;52.246;8.052;2023-08-06T03:40:51;99288.81;;;15.09;92.83
31483;BME280;18103;52.246;8.052;2023-08-06T03:43:19;99293.28;;;15.08;93.53
31483;BME280;18103;52.246;8.052;2023-08-06T03:45:46;99288.16;;;15.06;93.38
31483;BME280;18103;52.246;8.052;2023-08-06T03:48:12;99293.13;;;15.10;93.63
31483;BME280;18103;52.246;8.052;2023-08-06T03:50:39;99283.69;;;15.07;94.00
31483;BME280;18103;52.246;8.052;2023-08-06T03:53:05;99281.16;;;15.14;93.21
31483;BME280;18103;52.246;8.052;2023-08-06T03:55:30;99276.06;;;15.04;94.44
31483;BME280;18103;52.246;8.052;2023-08-06T03:57:58;99271.94;;;15.01;93.54
31483;BME280;18103;52.246;8.052;2023-08-06T04:00:25;99270.44;;;14.99;94.46
31483;BME280;18103;52.246;8.052;2023-08-06T04:02:53;99272.88;;;15.09;93.55
31483;BME280;18103;52.246;8.052;2023-08-06T04:05:18;99272.88;;;15.09;94.06
31483;BME280;18103;52.246;8.052;2023-08-06T04:07:46;99272.88;;;15.09;94.84
31483;BME280;18103;52.246;8.052;2023-08-06T04:10:11;99270.22;;;15.09;94.10
31483;BME280;18103;52.246;8.052;2023-08-06T04:12:39;99263.41;;;15.06;94.34
31483;BME280;18103;52.246;8.052;2023-08-06T04:15:10;99268.00;;;15.12;93.70
31483;BME280;18103;52.246;8.052;2023-08-06T04:17:38;99262.53;;;15.14;94.34
31483;BME280;18103;52.246;8.052;2023-08-06T04:20:06;99259.34;;;15.18;94.52
31483;BME280;18103;52.246;8.052;2023-08-06T04:22:31;99261.25;;;15.10;94.64
31483;BME280;18103;52.246;8.052;2023-08-06T04:24:57;99262.88;;;15.11;94.48
31483;BME280;18103;52.246;8.052;2023-08-06T04:27:22;99266.84;;;15.15;94.69
31483;BME280;18103;52.246;8.052;2023-08-06T04:29:48;99259.97;;;15.20;94.11
31483;BME280;18103;52.246;8.052;2023-08-06T04:32:15;99262.22;;;15.32;93.16
31483;BME280;18103;52.246;8.052;2023-08-06T04:34:41;99267.31;;;15.18;94.26
31483;BME280;18103;52.246;8.052;2023-08-06T04:37:09;99271.69;;;15.11;95.02
31483;BME280;18103;52.246;8.052;2023-08-06T04:39:39;99269.66;;;15.13;94.99
31483;BME280;18103;52.246;8.052;2023-08-06T04:42:09;99270.53;;;15.14;94.75
31483;BME280;18103;52.246;8.052;2023-08-06T04:44:34;99272.50;;;15.12;95.77
31483;BME280;18103;52.246;8.052;2023-08-06T04:46:59;99279.31;;;15.14;95.34
31483;BME280;18103;52.246;8.052;2023-08-06T04:49:27;99279.75;;;15.18;94.60
31483;BME280;18103;52.246;8.052;2023-08-06T04:51:53;99284.09;;;15.19;95.19
31483;BME280;18103;52.246;8.052;2023-08-06T04:54:20;99293.06;;;15.18;95.39
31483;BME280;18103;52.246;8.052;2023-08-06T04:56:46;99286.28;;;15.15;94.78
31483;BME280;18103;52.246;8.052;2023-08-06T04:59:11;99291.88;;;15.20;95.18
31483;BME280;18103;52.246;8.052;2023-08-06T05:01:36;99287.19;;;15.31;94.75
31483;BME280;18103;52.246;8.052;2023-08-06T05:04:04;99293.13;;;15.33;94.43
31483;BME280;18103;52.246;8.052;2023-08-06T05:06:29;99295.97;;;15.31;94.51
31483;BME280;18103;52.246;8.052;2023-08-06T05:08:55;99291.06;;;15.43;93.36
31483;BME280;18103;52.246;8.052;2023-08-06T05:11:24;99290.34;;;15.49;93.21
31483;BME280;18103;52.246;8.052;2023-08-06T05:13:49;99285.91;;;15.42;94.04
31483;BME280;18103;52.246;8.052;2023-08-06T05:16:15;99290.91;;;15.45;94.13
31483;BME280;18103;52.246;8.052;2023-08-06T05:18:40;99289.53;;;15.49;93.71
31483;BME280;18103;52.246;8.052;2023-08-06T05:21:07;99283.13;;;15.58;93.25
31483;BME280;18103;52.246;8.052;2023-08-06T05:23:32;99285.16;;;15.56;92.48
31483;BME280;18103;52.246;8.052;2023-08-06T05:25:57;99298.72;;;15.61;92.70
31483;BME280;18103;52.246;8.052;2023-08-06T05:28:23;99293.94;;;15.56;93.37
31483;BME280;18103;52.246;8.052;2023-08-06T05:30:48;99299.09;;;15.58;93.75
31483;BME280;18103;52.246;8.052;2023-08-06T05:33:15;99293.81;;;15.50;94.09
31483;BME280;18103;52.246;8.052;2023-08-06T05:35:43;99299.09;;;15.58;94.21
31483;BME280;18103;52.246;8.052;2023-08-06T05:38:09;99302.69;;;15.65;93.04
31483;BME280;18103;52.246;8.052;2023-08-06T05:40:37;99296.78;;;15.55;93.99
31483;BME280;18103;52.246;8.052;2023-08-06T05:43:05;99301.56;;;15.60;93.29
31483;BME280;18103;52.246;8.052;2023-08-06T05:45:30;99304.22;;;15.60;93.62
31483;BME280;18103;52.246;8.052;2023-08-06T05:47:56;99305.25;;;15.59;93.68
31483;BME280;18103;52.246;8.052;2023-08-06T05:50:24;99300.38;;;15.62;93.41
31483;BME280;18103;52.246;8.052;2023-08-06T05:52:49;99304.16;;;15.68;92.80
31483;BME280;18103;52.246;8.052;2023-08-06T05:55:15;99312.69;;;15.63;93.72
31483;BME280;18103;52.246;8.052;2023-08-06T05:57:40;99295.53;;;15.66;93.67
31483;BME280;18103;52.246;8.052;2023-08-06T06:00:06;99295.72;;;15.64;93.48
31483;BME280;18103;52.246;8.052;2023-08-06T06:02:31;99292.34;;;15.70;93.68
31483;BME280;18103;52.246;8.052;2023-08-06T06:04:57;99286.47;;;15.75;93.42
31483;BME280;18103;52.246;8.052;2023-08-06T06:07:22;99296.69;;;15.86;91.54
31483;BME280;18103;52.246;8.052;2023-08-06T06:09:50;99291.47;;;15.93;90.59
31483;BME280;18103;52.246;8.052;2023-08-06T06:12:15;99288.38;;;15.89;92.09
31483;BME280;18103;52.246;8.052;2023-08-06T06:14:40;99287.81;;;15.94;90.73
31483;BME280;18103;52.246;8.052;2023-08-06T06:17:08;99288.81;;;15.93;92.02
31483;BME280;18103;52.246;8.052;2023-08-06T06:19:33;99295.72;;;16.02;91.60
31483;BME280;18103;52.246;8.052;2023-08-06T06:22:01;99294.25;;;16.00;91.55
31483;BME280;18103;52.246;8.052;2023-08-06T06:24:28;99288.56;;;16.03;92.76
31483;BME280;18103;52.246;8.052;2023-08-06T06:26:54;99288.75;;;16.01;93.16
31483;BME280;18103;52.246;8.052;2023-08-06T06:29:19;99285.53;;;16.06;92.95
31483;BME280;18103;52.246;8.052;2023-08-06T06:31:44;99282.22;;;16.04;94.29
31483;BME280;18103;52.246;8.052;2023-08-06T06:34:10;99284.16;;;16.10;94.14
31483;BME280;18103;52.246;8.052;2023-08-06T06:36:35;99293.09;;;16.17;94.48
31483;BME280;18103;52.246;8.052;2023-08-06T06:39:01;99289.00;;;16.21;94.00
31483;BME280;18103;52.246;8.052;2023-08-06T06:41:26;99288.75;;;16.31;93.66
31483;BME280;18103;52.246;8.052;2023-08-06T06:43:57;99284.88;;;16.49;93.34
31483;BME280;18103;52.246;8.052;2023-08-06T06:46:24;99282.31;;;16.55;92.65
31483;BME280;18103;52.246;8.052;2023-08-06T06:48:52;99289.38;;;16.63;92.91
31483;BME280;18103;52.246;8.052;2023-08-06T06:51:18;99285.13;;;16.69;92.91
31483;BME280;18103;52.246;8.052;2023-08-06T06:53:43;99282.47;;;16.69;92.79
31483;BME280;18103;52.246;8.052;2023-08-06T06:56:13;99281.16;;;16.80;92.67
31483;BME280;18103;52.246;8.052;2023-08-06T06:58:38;99286.56;;;16.86;92.71
31483;BME280;18103;52.246;8.052;2023-08-06T07:01:09;99287.59;;;17.00;92.12
31483;BME280;18103;52.246;8.052;2023-08-06T07:03:36;99288.66;;;17.06;92.27
31483;BME280;18103;52.246;8.052;2023-08-06T07:06:01;99290.56;;;17.12;91.57
31483;BME280;18103;52.246;8.052;2023-08-06T07:08:29;99288.16;;;17.17;91.88
31483;BME280;18103;52.246;8.052;2023-08-06T07:11:02;99286.78;;;17.21;91.38
31483;BME280;18103;52.246;8.052;2023-08-06T07:13:30;99291.13;;;17.29;90.72
31483;BME280;18103;52.246;8.052;2023-08-06T07:15:55;99282.78;;;17.32;89.86
31483;BME280;18103;52.246;8.052;2023-08-06T07:18:24;99286.94;;;17.41;89.91
31483;BME280;18103;52.246;8.052;2023-08-06T07:20:53;99284.88;;;17.37;89.02
31483;BME280;18103;52.246;8.052;2023-08-06T07:23:23;99289.63;;;17.41;89.54
31483;BME280;18103;52.246;8.052;2023-08-06T07:25:49;99289.09;;;17.53;90.63
31483;BME280;18103;52.246;8.052;2023-08-06T07:28:17;99292.03;;;17.58;89.33
31483;BME280;18103;52.246;8.052;2023-08-06T07:30:45;99286.34;;;17.68;90.17
31483;BME280;18103;52.246;8.052;2023-08-06T07:33:13;99286.63;;;17.73;91.20
31483;BME280;18103;52.246;8.052;2023-08-06T07:35:40;99282.00;;;17.88;89.43
31483;BME280;18103;52.246;8.052;2023-08-06T07:38:06;99284.75;;;17.95;88.00
31483;BME280;18103;52.246;8.052;2023-08-06T07:40:31;99289.34;;;18.08;88.52
31483;BME280;18103;52.246;8.052;2023-08-06T07:43:01;99292.88;;;18.15;88.24
31483;BME280;18103;52.246;8.052;2023-08-06T07:45:33;99292.72;;;18.23;88.69
31483;BME280;18103;52.246;8.052;2023-08-06T07:47:58;99297.72;;;18.33;87.95
31483;BME280;18103;52.246;8.052;2023-08-06T07:50:24;99300.25;;;18.41;87.73
31483;BME280;18103;52.246;8.052;2023-08-06T07:52:49;99296.97;;;18.46;87.49
31483;BME280;18103;52.246;8.052;2023-08-06T07:55:14;99299.28;;;18.56;87.59
31483;BME280;18103;52.246;8.052;2023-08-06T07:57:40;99295.19;;;18.60;85.37
31483;BME280;18103;52.246;8.052;2023-08-06T08:00:06;99299.50;;;18.61;84.28
31483;BME280;18103;52.246;8.052;2023-08-06T08:02:39;99297.03;;;18.59;83.88
31483;BME280;18103;52.246;8.052;2023-08-06T08:05:07;99296.63;;;18.62;83.71
31483;BME280;18103;52.246;8.052;2023-08-06T08:07:35;99295.00;;;18.68;84.65
31483;BME280;18103;52.246;8.052;2023-08-06T08:10:03;99302.88;;;18.76;85.96
31483;BME280;18103;52.246;8.052;2023-08-06T08:12:31;99299.16;;;18.84;84.99
31483;BME280;18103;52.246;8.052;2023-08-06T08:14:56;99293.44;;;18.87;85.21
31483;BME280;18103;52.246;8.052;2023-08-06T08:17:22;99294.66;;;18.85;85.49
31483;BME280;18103;52.246;8.052;2023-08-06T08:19:47;99296.28;;;18.86;86.37
31483;BME280;18103;52.246;8.052;2023-08-06T08:22:15;99288.34;;;18.92;85.62
31483;BME280;18103;52.246;8.052;2023-08-06T08:24:43;99293.69;;;18.92;85.32
31483;BME280;18103;52.246;8.052;2023-08-06T08:27:08;99286.72;;;19.05;85.02
31483;BME280;18103;52.246;8.052;2023-08-06T08:29:35;99290.84;;;19.07;85.03
31483;BME280;18103;52.246;8.052;2023-08-06T08:32:06;99292.06;;;19.05;86.24
31483;BME280;18103;52.246;8.052;2023-08-06T08:34:31;99294.97;;;19.10;85.35
31483;BME280;18103;52.246;8.052;2023-08-06T08:37:03;99289.56;;;18.96;82.00
31483;BME280;18103;52.246;8.052;2023-08-06T08:39:31;99283.63;;;19.01;83.08
31483;BME280;18103;52.246;8.052;2023-08-06T08:41:56;99278.50;;;19.06;84.08
31483;BME280;18103;52.246;8.052;2023-08-06T08:44:24;99288.97;;;19.08;85.06
31483;BME280;18103;52.246;8.052;2023-08-06T08:46:54;99274.59;;;19.09;84.82
31483;BME280;18103;52.246;8.052;2023-08-06T08:49:21;99283.25;;;19.18;83.50
31483;BME280;18103;52.246;8.052;2023-08-06T08:51:52;99279.38;;;19.27;83.87
31483;BME280;18103;52.246;8.052;2023-08-06T08:54:18;99284.72;;;19.34;83.10
31483;BME280;18103;52.246;8.052;2023-08-06T08:56:45;99281.81;;;19.28;82.27
31483;BME280;18103;52.246;8.052;2023-08-06T08:59:11;99282.84;;;19.27;82.29
31483;BME280;18103;52.246;8.052;2023-08-06T09:01:37;99287.19;;;19.28;82.26
31483;BME280;18103;52.246;8.052;2023-08-06T09:04:07;99284.53;;;19.35;83.39
31483;BME280;18103;52.246;8.052;2023-08-06T09:06:37;99282.88;;;19.41;82.11
31483;BME280;18103;52.246;8.052;2023-08-06T09:09:11;99278.53;;;19.33;82.06
31483;BME280;18103;52.246;8.052;2023-08-06T09:11:43;99286.16;;;19.43;82.48
31483;BME280;18103;52.246;8.052;2023-08-06T09:14:09;99288.03;;;19.42;83.20
31483;BME280;18103;52.246;8.052;2023-08-06T09:16:36;99282.66;;;19.36;82.60
31483;BME280;18103;52.246;8.052;2023-08-06T09:19:08;99278.75;;;19.45;82.17
31483;BME280;18103;52.246;8.052;2023-08-06T09:21:37;99283.28;;;19.44;82.75
31483;BME280;18103;52.246;8.052;2023-08-06T09:24:07;99282.03;;;19.47;81.55
31483;BME280;18103;52.246;8.052;2023-08-06T09:26:34;99285.13;;;19.44;81.74
31483;BME280;18103;52.246;8.052;2023-08-06T09:29:06;99282.88;;;19.41;82.23
31483;BME280;18103;52.246;8.052;2023-08-06T09:31:39;99287.19;;;19.42;82.11
31483;BME280;18103;52.246;8.052;2023-08-06T09:34:10;99290.28;;;19.52;79.78
31483;BME280;18103;52.246;8.052;2023-08-06T09:36:40;99282.47;;;19.57;81.05
31483;BME280;18103;52.246;8.052;2023-08-06T09:39:35;99284.72;;;19.47;80.99
31483;BME280;18103;52.246;8.052;2023-08-06T09:42:01;99284.31;;;19.50;81.23
31483;BME280;18103;52.246;8.052;2023-08-06T09:44:31;99283.50;;;19.49;81.42
31483;BME280;18103;52.246;8.052;2023-08-06T09:46:59;99288.03;;;19.49;81.75
31483;BME280;18103;52.246;8.052;2023-08-06T09:49:39;99294.00;;;19.51;80.76
31483;BME280;18103;52.246;8.052;2023-08-06T09:52:13;99298.53;;;19.51;81.45
31483;BME280;18103;52.246;8.052;2023-08-06T09:54:40;99293.78;;;19.46;80.58
31483;BME280;18103;52.246;8.052;2023-08-06T09:57:06;99290.09;;;19.54;80.76
31483;BME280;18103;52.246;8.052;2023-08-06T09:59:32;99298.53;;;19.57;81.00
31483;BME280;18103;52.246;8.052;2023-08-06T10:02:05;99293.19;;;19.57;81.50
31483;BME280;18103;52.246;8.052;2023-08-06T10:04:39;99297.91;;;19.55;81.71
31483;BME280;18103;52.246;8.052;2023-08-06T10:07:04;99302.44;;;19.48;81.75
31483;BME280;18103;52.246;8.052;2023-08-06T10:09:32;99299.56;;;19.56;80.22
31483;BME280;18103;52.246;8.052;2023-08-06T10:12:01;99299.78;;;19.55;80.68
31483;BME280;18103;52.246;8.052;2023-08-06T10:14:35;99295.47;;;19.67;80.67
31483;BME280;18103;52.246;8.052;2023-08-06T10:17:02;99292.97;;;19.59;81.22
31483;BME280;18103;52.246;8.052;2023-08-06T10:19:30;99291.53;;;19.56;80.43
31483;BME280;18103;52.246;8.052;2023-08-06T10:27:53;99283.06;;;19.53;79.50
31483;BME280;18103;52.246;8.052;2023-08-06T10:30:31;99282.88;;;19.47;79.45
31483;BME280;18103;52.246;8.052;2023-08-06T10:32:58;99283.72;;;19.55;80.11
31483;BME280;18103;52.246;8.052;2023-08-06T10:35:48;99283.09;;;19.59;80.66
31483;BME280;18103;52.246;8.052;2023-08-06T10:38:22;99281.66;;;19.63;80.85
31483;BME280;18103;52.246;8.052;2023-08-06T10:43:28;99284.53;;;19.55;77.83
31483;BME280;18103;52.246;8.052;2023-08-06T10:45:55;99283.50;;;19.49;78.17
31483;BME280;18103;52.246;8.052;2023-08-06T10:48:40;99285.75;;;19.46;77.92
31483;BME280;18103;52.246;8.052;2023-08-06T10:51:10;99287.63;;;19.52;77.90
31483;BME280;18103;52.246;8.052;2023-08-06T10:53:36;99282.47;;;19.51;76.79
31483;BME280;18103;52.246;8.052;2023-08-06T10:56:02;99288.44;;;19.53;76.22
31483;BME280;18103;52.246;8.052;2023-08-06T10:58:36;99274.03;;;19.60;77.78
31483;BME280;18103;52.246;8.052;2023-08-06T11:01:04;99281.84;;;19.62;77.81
31483;BME280;18103;52.246;8.052;2023-08-06T11:03:33;99272.59;;;19.58;78.68
31483;BME280;18103;52.246;8.052;2023-08-06T11:06:01;99271.53;;;19.65;79.37
31483;BME280;18103;52.246;8.052;2023-08-06T11:08:30;99269.50;;;19.67;79.33
31483;BME280;18103;52.246;8.052;2023-08-06T11:11:11;99271.38;;;19.67;79.43
31483;BME280;18103;52.246;8.052;2023-08-06T11:13:38;99263.50;;;19.65;81.15
31483;BME280;18103;52.246;8.052;2023-08-06T11:16:06;99262.09;;;19.63;80.90
31483;BME280;18103;52.246;8.052;2023-08-06T11:18:34;99257.13;;;19.60;81.16
31483;BME280;18103;52.246;8.052;2023-08-06T11:21:02;99268.47;;;19.69;79.62
31483;BME280;18103;52.246;8.052;2023-08-06T11:23:32;99266.81;;;19.67;79.07
31483;BME280;18103;52.246;8.052;2023-08-06T11:26:03;99263.31;;;19.60;79.29
31483;BME280;18103;52.246;8.052;2023-08-06T11:28:28;99261.66;;;19.59;80.24
31483;BME280;18103;52.246;8.052;2023-08-06T11:30:54;99254.28;;;19.55;79.26
31483;BME280;18103;52.246;8.052;2023-08-06T11:33:26;99266.81;;;19.67;80.25
31483;BME280;18103;52.246;8.052;2023-08-06T11:35:58;99263.31;;;19.60;79.47
31483;BME280;18103;52.246;8.052;2023-08-06T11:38:28;99268.06;;;19.72;79.58
31483;BME280;18103;52.246;8.052;2023-08-06T11:40:54;99258.78;;;19.81;80.18
31483;BME280;18103;52.246;8.052;2023-08-06T11:43:20;99263.50;;;19.65;79.88
31483;BME280;18103;52.246;8.052;2023-08-06T11:45:50;99259.22;;;19.85;81.99
31483;BME280;18103;52.246;8.052;2023-08-06T11:48:19;99259.84;;;19.87;82.64
31483;BME280;18103;52.246;8.052;2023-08-06T11:50:47;99263.31;;;19.94;81.90
31483;BME280;18103;52.246;8.052;2023-08-06T11:53:14;99265.38;;;19.92;82.57
31483;BME280;18103;52.246;8.052;2023-08-06T11:55:42;99272.59;;;19.91;82.97
31483;BME280;18103;52.246;8.052;2023-08-06T11:58:13;99266.81;;;19.94;84.00
31483;BME280;18103;52.246;8.052;2023-08-06T12:00:42;99268.03;;;19.98;83.40
31483;BME280;18103;52.246;8.052;2023-08-06T12:03:12;99270.72;;;19.85;83.27
31483;BME280;18103;52.246;8.052;2023-08-06T12:05:37;99265.00;;;19.81;83.42
31483;BME280;18103;52.246;8.052;2023-08-06T12:08:04;99261.69;;;19.86;83.30
31483;BME280;18103;52.246;8.052;2023-08-06T12:10:30;99262.91;;;19.90;82.59
31483;BME280;18103;52.246;8.052;2023-08-06T12:12:59;99256.09;;;19.81;82.67
31483;BME280;18103;52.246;8.052;2023-08-06T12:15:25;99263.31;;;19.67;82.59
31483;BME280;18103;52.246;8.052;2023-08-06T12:17:53;99259.41;;;19.63;81.94
31483;BME280;18103;52.246;8.052;2023-08-06T12:20:21;99261.25;;;19.62;81.52
31483;BME280;18103;52.246;8.052;2023-08-06T12:22:49;99263.94;;;19.69;80.92
31483;BME280;18103;52.246;8.052;2023-08-06T12:25:17;99266.81;;;19.67;81.17
31483;BME280;18103;52.246;8.052;2023-08-06T12:27:43;99264.13;;;19.67;80.68
31483;BME280;18103;52.246;8.052;2023-08-06T12:30:10;99252.38;;;19.75;79.91
31483;BME280;18103;52.246;8.052;2023-08-06T12:32:36;99256.72;;;19.70;79.92
31483;BME280;18103;52.246;8.052;2023-08-06T12:35:02;99256.53;;;19.64;80.36
31483;BME280;18103;52.246;8.052;2023-08-06T12:37:30;99260.84;;;19.52;81.55
31483;BME280;18103;52.246;8.052;2023-08-06T12:39:56;99257.34;;;19.72;81.60
31483;BME280;18103;52.246;8.052;2023-08-06T12:42:21;99261.84;;;19.71;82.03
31483;BME280;18103;52.246;8.052;2023-08-06T12:44:48;99268.06;;;19.72;82.33
31483;BME280;18103;52.246;8.052;2023-08-06T12:47:13;99260.22;;;19.77;82.34
31483;BME280;18103;52.246;8.052;2023-08-06T12:49:41;99271.56;;;19.86;81.75
31483;BME280;18103;52.246;8.052;2023-08-06T12:52:07;99277.53;;;19.81;82.53
31483;BME280;18103;52.246;8.052;2023-08-06T12:54:34;99277.13;;;19.44;83.42
31483;BME280;18103;52.246;8.052;2023-08-06T12:57:02;99276.88;;;19.39;82.96
31483;BME280;18103;52.246;8.052;2023-08-06T12:59:28;99276.69;;;19.34;83.87
31483;BME280;18103;52.246;8.052;2023-08-06T13:01:55;99277.13;;;19.44;84.88
31483;BME280;18103;52.246;8.052;2023-08-06T13:04:21;99275.84;;;19.33;83.81
31483;BME280;18103;52.246;8.052;2023-08-06T13:06:49;99278.56;;;19.46;83.17
31483;BME280;18103;52.246;8.052;2023-08-06T13:09:16;99284.31;;;19.50;82.83
31483;BME280;18103;52.246;8.052;2023-08-06T13:11:42;99279.78;;;19.37;81.83
31483;BME280;18103;52.246;8.052;2023-08-06T13:14:11;99271.34;;;19.40;81.18
31483;BME280;18103;52.246;8.052;2023-08-06T13:16:40;99272.38;;;19.32;80.76
31483;BME280;18103;52.246;8.052;2023-08-06T13:19:06;99272.53;;;19.18;80.31
31483;BME280;18103;52.246;8.052;2023-08-06T13:24:06;99272.13;;;19.21;80.39